Time;durP1;ratioP1;P1;durP2;ratioP2;P2;SDS_P1;SDS_P2;PMS_P1;PMS_P2;Temp;Humidity;BMP_temperature;BMP_pressure;BME280_temperature;BME280_humidity;BME280_pressure;Samples;Min_cycle;Max_cycle;Signal;HPM_P1;HPM_P2
2023/11/30 00:02:16;;;;;;;22.00;15.73;;;;;;;;;;5086003;28;20059;-60
2023/11/30 00:04:43;;;;;;;23.23;15.40;;;;;;;;;;5086088;28;20058;-61
2023/11/30 00:07:12;;;;;;;19.77;14.55;;;;;;;;;;5087220;28;20048;-61
2023/11/30 00:09:39;;;;;;;23.25;15.43;;;;;;;;;;5081605;28;20056;-61
2023/11/30 00:12:08;;;;;;;23.08;15.50;;;;;;;;;;5075268;28;20063;-61
2023/11/30 00:14:34;;;;;;;23.90;15.88;;;;;;;;;;5075603;28;20053;-61
2023/11/30 00:17:02;;;;;;;22.60;15.32;;;;;;;;;;5082905;28;20392;-61
2023/11/30 00:19:29;;;;;;;23.23;15.90;;;;;;;;;;5084063;28;20055;-61
2023/11/30 00:21:56;;;;;;;24.05;16.58;;;;;;;;;;5086690;28;20043;-61
2023/11/30 00:24:23;;;;;;;25.67;16.95;;;;;;;;;;5080214;28;20060;-61
2023/11/30 00:26:49;;;;;;;24.48;16.55;;;;;;;;;;5074369;28;20052;-61
2023/11/30 00:29:18;;;;;;;23.92;16.13;;;;;;;;;;5089095;28;20416;-61
2023/11/30 00:31:44;;;;;;;23.67;15.55;;;;;;;;;;5078791;28;20053;-61
2023/11/30 00:34:11;;;;;;;23.80;15.63;;;;;;;;;;5073955;28;20174;-61
2023/11/30 00:36:38;;;;;;;23.23;15.98;;;;;;;;;;5078383;28;20059;-61
2023/11/30 00:39:05;;;;;;;23.00;16.00;;;;;;;;;;5077394;28;20052;-61
2023/11/30 00:41:31;;;;;;;24.27;16.45;;;;;;;;;;5075185;28;20044;-61
2023/11/30 00:43:58;;;;;;;26.00;16.00;;;;;;;;;;5074377;28;20502;-61
2023/11/30 00:46:26;;;;;;;24.90;16.90;;;;;;;;;;5084468;28;20405;-61
2023/11/30 00:48:53;;;;;;;26.63;17.33;;;;;;;;;;5073227;28;20052;-61
2023/11/30 00:51:20;;;;;;;23.50;15.32;;;;;;;;;;5072946;28;20052;-60
2023/11/30 00:53:47;;;;;;;23.02;15.90;;;;;;;;;;5073145;28;20059;-60
2023/11/30 00:56:13;;;;;;;24.95;15.63;;;;;;;;;;5073555;28;20048;-60
2023/11/30 00:58:40;;;;;;;22.67;15.43;;;;;;;;;;5074726;28;20123;-61
2023/11/30 01:01:07;;;;;;;25.33;15.75;;;;;;;;;;5076480;28;20071;-61
2023/11/30 01:03:35;;;;;;;23.60;15.20;;;;;;;;;;5072427;28;20049;-61
2023/11/30 01:06:02;;;;;;;24.25;16.05;;;;;;;;;;5074996;28;20048;-61
2023/11/30 01:08:29;;;;;;;22.95;15.57;;;;;;;;;;5084899;28;20408;-61
2023/11/30 01:10:55;;;;;;;22.77;14.98;;;;;;;;;;5079798;28;20062;-61
2023/11/30 01:13:22;;;;;;;22.08;15.68;;;;;;;;;;5087109;28;20390;-61
2023/11/30 01:15:49;;;;;;;29.42;17.08;;;;;;;;;;5083674;28;20052;-61
2023/11/30 01:18:16;;;;;;;21.95;15.18;;;;;;;;;;5075686;28;20052;-61
2023/11/30 01:20:44;;;;;;;25.95;17.35;;;;;;;;;;5075031;28;20055;-61
2023/11/30 01:23:11;;;;;;;22.52;14.70;;;;;;;;;;5073917;28;20382;-61
2023/11/30 01:25:38;;;;;;;26.10;16.08;;;;;;;;;;5073857;28;20060;-61
2023/11/30 01:28:05;;;;;;;23.42;15.75;;;;;;;;;;5077280;28;20052;-61
2023/11/30 01:30:31;;;;;;;27.65;16.38;;;;;;;;;;5076560;28;20414;-61
2023/11/30 01:32:58;;;;;;;24.13;16.38;;;;;;;;;;5071564;28;20052;-61
2023/11/30 01:35:28;;;;;;;23.60;16.02;;;;;;;;;;5072862;28;20059;-61
2023/11/30 01:37:57;;;;;;;25.23;16.63;;;;;;;;;;5074943;28;20049;-61
2023/11/30 01:40:24;;;;;;;25.08;17.23;;;;;;;;;;5076505;28;20055;-61
2023/11/30 01:42:51;;;;;;;26.08;17.95;;;;;;;;;;5074611;28;20056;-62
2023/11/30 01:45:17;;;;;;;27.90;17.23;;;;;;;;;;5079498;28;20052;-61
2023/11/30 01:47:44;;;;;;;30.35;19.02;;;;;;;;;;5075733;28;20053;-62
2023/11/30 01:50:11;;;;;;;28.92;18.75;;;;;;;;;;5075313;28;20052;-62
2023/11/30 01:52:38;;;;;;;28.48;18.30;;;;;;;;;;5077711;28;20055;-62
2023/11/30 01:55:08;;;;;;;30.90;19.20;;;;;;;;;;5076279;28;20067;-61
2023/11/30 01:57:35;;;;;;;27.23;17.55;;;;;;;;;;5085014;28;20538;-60
2023/11/30 02:00:02;;;;;;;27.75;17.73;;;;;;;;;;5075236;28;20051;-61
2023/11/30 02:02:29;;;;;;;24.08;16.58;;;;;;;;;;5075897;28;20501;-61
2023/11/30 02:04:56;;;;;;;26.67;17.58;;;;;;;;;;5077466;28;20052;-61
2023/11/30 02:07:23;;;;;;;27.92;18.98;;;;;;;;;;5077685;28;20060;-60
2023/11/30 02:09:50;;;;;;;25.90;18.00;;;;;;;;;;5075069;28;20508;-61
2023/11/30 02:12:18;;;;;;;28.48;17.92;;;;;;;;;;5073766;28;20055;-62
2023/11/30 02:14:45;;;;;;;25.00;16.90;;;;;;;;;;5075479;28;20052;-61
2023/11/30 02:17:11;;;;;;;25.92;17.30;;;;;;;;;;5075570;28;20067;-61
2023/11/30 02:19:39;;;;;;;25.65;17.45;;;;;;;;;;5074329;28;20052;-61
2023/11/30 02:22:07;;;;;;;27.10;16.70;;;;;;;;;;5081012;28;20055;-61
2023/11/30 02:24:34;;;;;;;28.10;17.90;;;;;;;;;;5080550;28;20052;-61
2023/11/30 02:27:01;;;;;;;26.58;17.67;;;;;;;;;;5081372;28;20055;-61
2023/11/30 02:29:28;;;;;;;27.23;17.90;;;;;;;;;;5071633;28;20424;-60
2023/11/30 02:31:54;;;;;;;32.28;18.88;;;;;;;;;;5075887;28;20048;-61
2023/11/30 02:34:21;;;;;;;29.08;18.10;;;;;;;;;;5076855;28;20393;-62
2023/11/30 02:36:48;;;;;;;28.52;18.83;;;;;;;;;;5075294;28;20054;-60
2023/11/30 02:39:16;;;;;;;29.60;18.08;;;;;;;;;;5070915;28;20052;-61
2023/11/30 02:41:43;;;;;;;26.05;16.70;;;;;;;;;;5072228;28;20498;-61
2023/11/30 02:44:10;;;;;;;28.67;17.40;;;;;;;;;;5070752;28;20378;-61
2023/11/30 02:46:36;;;;;;;32.80;18.45;;;;;;;;;;5079732;28;20051;-61
2023/11/30 02:49:03;;;;;;;26.63;16.98;;;;;;;;;;5078993;28;20052;-61
2023/11/30 02:51:29;;;;;;;26.55;17.55;;;;;;;;;;5078538;28;20045;-60
2023/11/30 02:53:56;;;;;;;23.88;16.45;;;;;;;;;;5070779;28;20058;-60
2023/11/30 02:56:24;;;;;;;28.75;17.83;;;;;;;;;;5070490;28;20048;-61
2023/11/30 02:58:51;;;;;;;30.35;18.17;;;;;;;;;;5070869;28;20488;-61
2023/11/30 03:01:17;;;;;;;30.90;18.95;;;;;;;;;;5083344;28;20048;-60
2023/11/30 03:03:44;;;;;;;27.50;17.98;;;;;;;;;;5070225;28;20068;-61
2023/11/30 03:06:11;;;;;;;29.60;17.55;;;;;;;;;;5076816;28;20429;-61
2023/11/30 03:08:38;;;;;;;28.73;18.58;;;;;;;;;;5080643;28;20067;-60
2023/11/30 03:11:05;;;;;;;28.83;17.83;;;;;;;;;;5079008;28;20408;-60
2023/11/30 03:13:33;;;;;;;26.77;16.50;;;;;;;;;;5075027;28;20481;-61
2023/11/30 03:16:00;;;;;;;27.17;17.08;;;;;;;;;;5089061;28;20055;-61
2023/11/30 03:18:27;;;;;;;25.88;16.45;;;;;;;;;;5084614;28;20043;-60
2023/11/30 03:20:53;;;;;;;27.92;17.77;;;;;;;;;;5073720;28;20090;-61
2023/11/30 03:23:20;;;;;;;26.90;17.08;;;;;;;;;;5077082;28;20382;-61
2023/11/30 03:25:47;;;;;;;27.33;17.15;;;;;;;;;;5085680;28;20481;-61
2023/11/30 03:28:14;;;;;;;27.42;17.13;;;;;;;;;;5080640;28;20056;-60
2023/11/30 03:30:42;;;;;;;22.35;15.35;;;;;;;;;;5086077;28;20400;-60
2023/11/30 03:33:09;;;;;;;23.05;15.90;;;;;;;;;;5080677;28;20433;-61
2023/11/30 03:35:36;;;;;;;19.88;14.85;;;;;;;;;;5077981;28;20067;-62
2023/11/30 03:38:02;;;;;;;20.85;15.20;;;;;;;;;;5079982;28;20053;-61
2023/11/30 03:40:29;;;;;;;22.98;15.18;;;;;;;;;;5076890;28;20051;-60
2023/11/30 03:42:56;;;;;;;24.00;15.38;;;;;;;;;;5073027;28;20532;-60
2023/11/30 03:45:23;;;;;;;23.77;16.10;;;;;;;;;;5075033;28;20048;-61
2023/11/30 03:47:51;;;;;;;27.90;17.05;;;;;;;;;;5074700;28;20067;-61
2023/11/30 03:50:17;;;;;;;29.17;17.38;;;;;;;;;;5072724;28;20074;-61
2023/11/30 03:52:43;;;;;;;32.95;18.90;;;;;;;;;;5073005;28;20075;-61
2023/11/30 03:55:10;;;;;;;31.45;18.77;;;;;;;;;;5072747;28;20075;-61
2023/11/30 03:57:37;;;;;;;28.05;17.35;;;;;;;;;;5072806;28;20048;-60
2023/11/30 04:00:07;;;;;;;29.90;18.17;;;;;;;;;;5073247;28;20057;-61
2023/11/30 04:02:34;;;;;;;28.23;18.60;;;;;;;;;;5078993;28;20045;-61
2023/11/30 04:05:05;;;;;;;29.08;18.15;;;;;;;;;;5085477;28;20102;-60
2023/11/30 04:07:32;;;;;;;27.55;17.08;;;;;;;;;;5084987;28;20052;-61
2023/11/30 04:09:58;;;;;;;30.27;17.65;;;;;;;;;;5083038;28;20449;-61
2023/11/30 04:12:25;;;;;;;23.73;16.40;;;;;;;;;;5074869;28;20049;-61
2023/11/30 04:14:52;;;;;;;20.45;14.70;;;;;;;;;;5082394;28;20051;-61
2023/11/30 04:17:19;;;;;;;21.02;14.57;;;;;;;;;;5082657;28;20059;-60
2023/11/30 04:19:46;;;;;;;24.23;16.48;;;;;;;;;;5081909;28;20052;-61
2023/11/30 04:22:14;;;;;;;28.33;16.33;;;;;;;;;;5080081;28;20048;-38
2023/11/30 04:24:41;;;;;;;27.10;16.83;;;;;;;;;;5075271;28;20048;-61
2023/11/30 04:27:08;;;;;;;28.58;19.20;;;;;;;;;;5073085;28;20052;-61
2023/11/30 04:29:35;;;;;;;27.00;16.88;;;;;;;;;;5076509;28;20047;-61
2023/11/30 04:32:02;;;;;;;27.38;17.33;;;;;;;;;;5085655;28;20067;-62
2023/11/30 04:34:29;;;;;;;29.38;18.33;;;;;;;;;;5082367;28;20048;-61
2023/11/30 04:36:56;;;;;;;40.00;22.05;;;;;;;;;;5075310;28;20059;-60
2023/11/30 04:39:25;;;;;;;26.92;17.33;;;;;;;;;;5082762;28;20478;-61
2023/11/30 04:41:52;;;;;;;27.55;17.52;;;;;;;;;;5084862;28;20063;-61
2023/11/30 04:44:20;;;;;;;31.75;18.52;;;;;;;;;;5083876;28;20198;-61
2023/11/30 04:46:46;;;;;;;33.28;18.85;;;;;;;;;;5078701;28;20059;-61
2023/11/30 04:49:14;;;;;;;26.27;17.40;;;;;;;;;;5079479;28;20060;-61
2023/11/30 04:51:41;;;;;;;32.88;19.55;;;;;;;;;;5073806;28;20056;-61
2023/11/30 04:54:07;;;;;;;26.23;17.35;;;;;;;;;;5076010;28;20052;-61
2023/11/30 04:56:35;;;;;;;25.73;16.17;;;;;;;;;;5074371;28;20063;-61
2023/11/30 04:59:03;;;;;;;25.08;16.55;;;;;;;;;;5076056;28;20049;-60
2023/11/30 05:01:30;;;;;;;28.10;17.40;;;;;;;;;;5073444;28;20060;-61
2023/11/30 05:03:56;;;;;;;27.90;17.23;;;;;;;;;;5074617;28;20047;-61
2023/11/30 05:06:23;;;;;;;26.02;17.35;;;;;;;;;;5090953;28;20048;-61
2023/11/30 05:08:50;;;;;;;30.13;17.15;;;;;;;;;;5092037;28;20060;-61
2023/11/30 05:11:17;;;;;;;28.88;18.15;;;;;;;;;;5077203;28;20059;-61
2023/11/30 05:13:45;;;;;;;33.17;20.10;;;;;;;;;;5073927;28;20052;-61
2023/11/30 05:16:12;;;;;;;29.85;18.83;;;;;;;;;;5090061;28;20407;-61
2023/11/30 05:18:39;;;;;;;29.42;18.40;;;;;;;;;;5074425;28;20048;-60
2023/11/30 05:21:06;;;;;;;32.47;19.45;;;;;;;;;;5086757;28;20056;-60
2023/11/30 05:23:33;;;;;;;34.38;20.77;;;;;;;;;;5083731;28;20051;-61
2023/11/30 05:26:00;;;;;;;30.42;18.73;;;;;;;;;;5074396;28;20048;-61
2023/11/30 05:28:27;;;;;;;30.23;19.48;;;;;;;;;;5072287;28;20055;-61
2023/11/30 05:30:55;;;;;;;29.10;19.08;;;;;;;;;;5073075;28;20048;-61
2023/11/30 05:33:24;;;;;;;30.90;19.35;;;;;;;;;;5073672;28;20056;-60
2023/11/30 05:35:51;;;;;;;28.85;18.00;;;;;;;;;;5074200;28;20052;-61
2023/11/30 05:38:19;;;;;;;30.73;19.00;;;;;;;;;;5075038;28;20048;-62
2023/11/30 05:40:45;;;;;;;27.25;18.02;;;;;;;;;;5073769;28;20470;-60
2023/11/30 05:43:12;;;;;;;30.48;19.00;;;;;;;;;;5077145;28;20080;-60
2023/11/30 05:45:40;;;;;;;31.00;19.35;;;;;;;;;;5073142;28;20048;-60
2023/11/30 05:48:08;;;;;;;24.38;16.88;;;;;;;;;;5077359;28;20071;-60
2023/11/30 05:50:35;;;;;;;20.67;14.77;;;;;;;;;;5077372;28;20048;-60
2023/11/30 05:53:04;;;;;;;20.05;14.63;;;;;;;;;;5077536;28;20066;-60
2023/11/30 05:55:31;;;;;;;20.20;15.30;;;;;;;;;;5085429;28;20067;-60
2023/11/30 05:57:58;;;;;;;21.50;15.90;;;;;;;;;;5072895;28;20055;-60
2023/11/30 06:00:25;;;;;;;20.85;15.23;;;;;;;;;;5073222;28;20045;-60
2023/11/30 06:02:51;;;;;;;26.92;17.77;;;;;;;;;;5087456;28;20122;-60
2023/11/30 06:05:20;;;;;;;24.23;16.67;;;;;;;;;;5081420;28;20049;-60
2023/11/30 06:07:46;;;;;;;25.52;18.35;;;;;;;;;;5072399;28;20056;-60
2023/11/30 06:10:14;;;;;;;25.92;17.95;;;;;;;;;;5072549;28;20064;-60
2023/11/30 06:12:41;;;;;;;25.10;17.52;;;;;;;;;;5071848;28;20056;-60
2023/11/30 06:15:09;;;;;;;26.30;17.75;;;;;;;;;;5072186;28;20048;-60
2023/11/30 06:17:36;;;;;;;27.90;18.23;;;;;;;;;;5074186;28;20064;-60
2023/11/30 06:20:04;;;;;;;26.75;18.80;;;;;;;;;;5090652;28;20044;-60
2023/11/30 06:22:32;;;;;;;28.55;19.60;;;;;;;;;;5078032;28;20078;-60
2023/11/30 06:24:59;;;;;;;26.13;18.58;;;;;;;;;;5092159;28;20055;-60
2023/11/30 06:27:26;;;;;;;27.75;19.73;;;;;;;;;;5092283;28;20052;-60
2023/11/30 06:29:53;;;;;;;28.83;19.80;;;;;;;;;;5090585;28;20059;-60
2023/11/30 06:32:20;;;;;;;28.25;19.05;;;;;;;;;;5075404;28;20044;-60
2023/11/30 06:34:47;;;;;;;27.15;18.40;;;;;;;;;;5091713;28;20052;-60
2023/11/30 06:37:14;;;;;;;28.95;19.13;;;;;;;;;;5092188;28;20413;-60
2023/11/30 06:39:42;;;;;;;25.40;17.33;;;;;;;;;;5092562;28;20067;-60
2023/11/30 06:42:09;;;;;;;24.10;16.60;;;;;;;;;;5093833;28;20532;-60
2023/11/30 06:44:36;;;;;;;26.33;17.75;;;;;;;;;;5095711;28;20056;-60
2023/11/30 06:47:03;;;;;;;22.48;16.52;;;;;;;;;;5077494;28;20059;-60
2023/11/30 06:49:30;;;;;;;26.27;18.38;;;;;;;;;;5075714;28;20056;-60
2023/11/30 06:51:58;;;;;;;22.20;16.63;;;;;;;;;;5075173;28;20053;-60
2023/11/30 06:54:25;;;;;;;25.13;17.38;;;;;;;;;;5074989;28;20052;-60
2023/11/30 06:56:53;;;;;;;28.08;19.17;;;;;;;;;;5075349;28;20400;-60
2023/11/30 06:59:20;;;;;;;24.42;18.48;;;;;;;;;;5075366;28;20052;-60
2023/11/30 07:01:48;;;;;;;27.92;19.25;;;;;;;;;;5080085;28;20496;-62
2023/11/30 07:04:16;;;;;;;26.10;18.02;;;;;;;;;;5074861;28;20057;-60
2023/11/30 07:06:42;;;;;;;26.00;17.35;;;;;;;;;;5075331;28;20049;-60
2023/11/30 07:09:12;;;;;;;25.88;17.85;;;;;;;;;;5075390;28;20067;-60
2023/11/30 07:11:39;;;;;;;25.30;16.67;;;;;;;;;;5076916;28;20057;-60
2023/11/30 07:14:07;;;;;;;23.55;16.98;;;;;;;;;;5095258;28;20047;-60
2023/11/30 07:16:34;;;;;;;30.70;19.05;;;;;;;;;;5091900;28;20417;-60
2023/11/30 07:19:00;;;;;;;29.40;17.95;;;;;;;;;;5095004;28;20413;-59
2023/11/30 07:21:27;;;;;;;25.17;17.95;;;;;;;;;;5095051;28;20055;-60
2023/11/30 07:23:54;;;;;;;27.45;18.38;;;;;;;;;;5095174;28;20063;-60
2023/11/30 07:26:21;;;;;;;25.67;18.40;;;;;;;;;;5090372;28;20044;-60
2023/11/30 07:28:48;;;;;;;27.67;18.98;;;;;;;;;;5074660;28;20060;-60
2023/11/30 07:31:19;;;;;;;27.10;19.15;;;;;;;;;;5082163;28;20376;-60
2023/11/30 07:33:46;;;;;;;26.00;17.48;;;;;;;;;;5091540;28;20052;-59
2023/11/30 07:36:12;;;;;;;34.03;22.42;;;;;;;;;;5094508;28;20055;-60
2023/11/30 07:38:39;;;;;;;28.70;20.00;;;;;;;;;;5094888;28;20051;-60
2023/11/30 07:41:07;;;;;;;28.67;18.95;;;;;;;;;;5094884;28;20075;-60
2023/11/30 07:43:34;;;;;;;26.63;18.20;;;;;;;;;;5092492;28;20055;-60
2023/11/30 07:46:01;;;;;;;26.05;18.88;;;;;;;;;;5090686;28;20047;-60
2023/11/30 07:48:29;;;;;;;26.73;18.70;;;;;;;;;;5084838;28;20048;-60
2023/11/30 07:50:56;;;;;;;26.10;18.35;;;;;;;;;;5073502;28;20052;-60
2023/11/30 07:53:24;;;;;;;29.50;19.55;;;;;;;;;;5074087;28;20068;-59
2023/11/30 07:55:54;;;;;;;26.00;17.73;;;;;;;;;;5074476;28;20048;-59
2023/11/30 07:58:22;;;;;;;32.22;20.83;;;;;;;;;;5077882;28;20074;-59
2023/11/30 08:00:49;;;;;;;29.08;19.95;;;;;;;;;;5089483;28;20052;-60
2023/11/30 08:03:15;;;;;;;29.77;19.17;;;;;;;;;;5093297;28;20118;-60
2023/11/30 08:05:44;;;;;;;27.80;19.63;;;;;;;;;;5094489;28;20048;-59
2023/11/30 08:08:12;;;;;;;27.58;18.73;;;;;;;;;;5091276;28;20048;-59
2023/11/30 08:10:39;;;;;;;28.70;19.10;;;;;;;;;;5073844;28;20059;-59
2023/11/30 08:13:06;;;;;;;27.98;19.00;;;;;;;;;;5074311;28;20508;-59
2023/11/30 08:15:33;;;;;;;26.92;18.90;;;;;;;;;;5074392;28;20056;-59
2023/11/30 08:18:00;;;;;;;28.55;19.17;;;;;;;;;;5076688;28;20056;-59
2023/11/30 08:20:27;;;;;;;26.25;18.83;;;;;;;;;;5086027;28;20052;-59
2023/11/30 08:22:56;;;;;;;24.83;18.58;;;;;;;;;;5094154;28;20432;-59
2023/11/30 08:25:23;;;;;;;26.93;18.43;;;;;;;;;;5093928;28;20044;-60
2023/11/30 08:27:50;;;;;;;25.10;18.92;;;;;;;;;;5094025;28;20822;-59
2023/11/30 08:30:17;;;;;;;25.40;18.20;;;;;;;;;;5085498;28;20049;-60
2023/11/30 08:32:44;;;;;;;24.55;17.20;;;;;;;;;;5080285;28;20059;-59
2023/11/30 08:35:11;;;;;;;23.75;17.35;;;;;;;;;;5093193;28;20043;-59
2023/11/30 08:37:37;;;;;;;26.77;18.80;;;;;;;;;;5093416;28;20056;-59
2023/11/30 08:40:07;;;;;;;24.30;18.15;;;;;;;;;;5088776;28;20354;-60
2023/11/30 08:42:35;;;;;;;26.90;18.38;;;;;;;;;;5077548;28;20061;-59
2023/11/30 08:45:02;;;;;;;28.85;18.65;;;;;;;;;;5074353;28;20537;-59
2023/11/30 08:47:29;;;;;;;24.80;17.25;;;;;;;;;;5073698;28;20053;-60
2023/11/30 08:49:56;;;;;;;24.73;17.90;;;;;;;;;;5073538;28;20056;-59
2023/11/30 08:52:23;;;;;;;25.50;18.63;;;;;;;;;;5073464;28;20080;-59
2023/11/30 08:54:51;;;;;;;25.45;18.92;;;;;;;;;;5073241;28;20063;-61
2023/11/30 08:57:19;;;;;;;26.58;20.55;;;;;;;;;;5073379;28;20056;-59
2023/11/30 08:59:47;;;;;;;25.73;20.88;;;;;;;;;;5073301;28;20048;-60
2023/11/30 09:02:14;;;;;;;24.25;18.80;;;;;;;;;;5073063;28;20048;-60
2023/11/30 09:04:41;;;;;;;24.98;18.45;;;;;;;;;;5073057;28;20059;-60
2023/11/30 09:07:08;;;;;;;23.83;18.42;;;;;;;;;;5073290;28;20481;-59
2023/11/30 09:09:35;;;;;;;22.50;18.08;;;;;;;;;;5072996;28;20052;-60
2023/11/30 09:12:02;;;;;;;24.42;19.02;;;;;;;;;;5084140;28;20052;-59
2023/11/30 09:14:30;;;;;;;20.08;16.83;;;;;;;;;;5092902;28;20495;-59
2023/11/30 09:16:59;;;;;;;20.33;16.42;;;;;;;;;;5090461;28;20051;-60
2023/11/30 09:19:26;;;;;;;17.80;15.13;;;;;;;;;;5092779;28;20072;-60
2023/11/30 09:21:52;;;;;;;17.70;15.50;;;;;;;;;;5093247;28;20377;-61
2023/11/30 09:24:21;;;;;;;85.35;35.30;;;;;;;;;;5092675;28;20052;-60
2023/11/30 09:26:49;;;;;;;16.75;15.10;;;;;;;;;;5087552;28;20044;-63
2023/11/30 09:29:16;;;;;;;16.83;14.70;;;;;;;;;;5093037;28;20059;-61
2023/11/30 09:31:45;;;;;;;15.55;13.95;;;;;;;;;;5080392;28;20052;-61
2023/11/30 09:34:13;;;;;;;;;;;;;;;;;;5092203;28;20047;-61
2023/11/30 09:36:40;;;;;;;15.40;13.90;;;;;;;;;;5085174;28;19920;-61
2023/11/30 09:39:07;;;;;;;14.73;13.40;;;;;;;;;;5072565;28;20056;-61
2023/11/30 09:41:35;;;;;;;16.05;14.52;;;;;;;;;;5072386;28;20052;-60
2023/11/30 09:44:03;;;;;;;13.88;12.48;;;;;;;;;;5072673;28;20063;-61
2023/11/30 09:46:30;;;;;;;15.88;14.20;;;;;;;;;;5073344;28;20044;-61
2023/11/30 09:48:58;;;;;;;16.23;14.68;;;;;;;;;;5072363;28;20423;-60
2023/11/30 09:51:26;;;;;;;16.45;14.85;;;;;;;;;;5072321;28;20083;-61
2023/11/30 09:53:55;;;;;;;17.25;15.65;;;;;;;;;;5071925;28;20489;-61
2023/11/30 09:56:22;;;;;;;16.90;15.30;;;;;;;;;;5075825;28;20052;-61
2023/11/30 09:58:48;;;;;;;19.05;17.15;;;;;;;;;;5092556;28;20404;-61
2023/11/30 10:01:16;;;;;;;19.50;17.50;;;;;;;;;;5087971;28;20481;-60
2023/11/30 10:03:42;;;;;;;19.45;16.70;;;;;;;;;;5071780;28;20075;-60
2023/11/30 10:06:12;;;;;;;19.45;17.42;;;;;;;;;;5092270;28;20070;-61
2023/11/30 10:08:39;;;;;;;18.60;16.73;;;;;;;;;;5073784;28;20056;-60
2023/11/30 10:11:06;;;;;;;17.83;16.02;;;;;;;;;;5072248;28;20079;-60
2023/11/30 10:13:33;;;;;;;17.20;15.40;;;;;;;;;;5076604;28;20048;-61
2023/11/30 10:16:00;;;;;;;17.05;15.25;;;;;;;;;;5090362;28;20063;-61
2023/11/30 10:18:27;;;;;;;15.18;13.63;;;;;;;;;;5072582;28;20048;-60
2023/11/30 10:20:54;;;;;;;16.05;14.52;;;;;;;;;;5071942;28;20053;-60
2023/11/30 10:23:22;;;;;;;16.63;15.00;;;;;;;;;;5072190;28;20059;-60
2023/11/30 10:25:49;;;;;;;14.20;12.80;;;;;;;;;;5071821;28;20429;-61
2023/11/30 10:28:19;;;;;;;14.65;13.15;;;;;;;;;;5081576;28;20044;-61
2023/11/30 10:30:46;;;;;;;14.00;12.80;;;;;;;;;;5091847;28;20411;-61
2023/11/30 10:33:13;;;;;;;14.20;12.93;;;;;;;;;;5075290;28;20056;-61
2023/11/30 10:35:43;;;;;;;14.25;13.05;;;;;;;;;;5071820;28;20052;-61
2023/11/30 10:38:10;;;;;;;13.60;12.40;;;;;;;;;;5073091;28;20071;-61
2023/11/30 10:40:39;;;;;;;13.85;12.50;;;;;;;;;;5071708;28;20499;-61
2023/11/30 10:43:06;;;;;;;12.80;11.60;;;;;;;;;;5070995;28;20060;-61
2023/11/30 10:45:35;;;;;;;12.68;11.57;;;;;;;;;;5071153;28;20049;-62
2023/11/30 10:48:03;;;;;;;13.50;12.30;;;;;;;;;;5083664;28;20059;-61
2023/11/30 10:50:31;;;;;;;12.40;11.38;;;;;;;;;;5091442;28;20063;-62
2023/11/30 10:52:59;;;;;;;12.57;11.25;;;;;;;;;;5091714;28;20052;-59
2023/11/30 10:55:26;;;;;;;12.30;11.23;;;;;;;;;;5091678;28;20397;-62
2023/11/30 10:57:54;;;;;;;12.48;11.27;;;;;;;;;;5082867;28;20048;-61
2023/11/30 11:00:23;;;;;;;12.75;11.65;;;;;;;;;;5071250;28;20438;-62
2023/11/30 11:02:50;;;;;;;11.75;10.75;;;;;;;;;;5072333;28;20064;-61
2023/11/30 11:05:20;;;;;;;12.15;11.05;;;;;;;;;;5084461;28;20059;-59
2023/11/30 11:07:47;;;;;;;12.70;11.60;;;;;;;;;;5090247;28;20049;-60
2023/11/30 11:10:21;;;;;;;12.18;11.07;;;;;;;;;;5091183;28;20048;-59
2023/11/30 11:12:49;;;;;;;11.30;10.30;;;;;;;;;;5091141;28;20056;-60
2023/11/30 11:15:19;;;;;;;12.15;11.18;;;;;;;;;;5091255;28;20074;-61
2023/11/30 11:17:47;;;;;;;12.18;10.95;;;;;;;;;;5084417;28;20071;-59
2023/11/30 11:20:21;;;;;;;11.65;10.55;;;;;;;;;;5071472;28;20473;-60
2023/11/30 11:22:48;;;;;;;10.98;10.07;;;;;;;;;;5070928;28;20052;-60
2023/11/30 11:25:16;;;;;;;11.75;10.82;;;;;;;;;;5071016;28;20048;-60
2023/11/30 11:27:43;;;;;;;10.90;10.07;;;;;;;;;;5075973;28;20496;-60
2023/11/30 11:30:10;;;;;;;10.65;9.48;;;;;;;;;;5074422;28;20836;-60
2023/11/30 11:32:40;;;;;;;10.93;9.98;;;;;;;;;;5075609;28;20060;-62
2023/11/30 11:35:07;;;;;;;11.88;10.77;;;;;;;;;;5074283;28;20486;-60
2023/11/30 11:37:34;;;;;;;11.25;10.35;;;;;;;;;;5074910;28;20053;-60
2023/11/30 11:40:02;;;;;;;11.38;10.32;;;;;;;;;;5092522;28;20139;-62
2023/11/30 11:42:28;;;;;;;10.98;9.98;;;;;;;;;;5094848;28;20056;-62
2023/11/30 11:44:55;;;;;;;10.50;9.70;;;;;;;;;;5094631;28;20055;-61
2023/11/30 11:47:22;;;;;;;11.65;10.65;;;;;;;;;;5095186;28;20052;-61
2023/11/30 11:49:50;;;;;;;10.60;9.73;;;;;;;;;;5075694;28;20536;-61
2023/11/30 11:52:20;;;;;;;10.23;9.43;;;;;;;;;;5074721;28;20059;-61
2023/11/30 11:54:47;;;;;;;10.20;9.40;;;;;;;;;;5074433;28;20048;-61
2023/11/30 11:57:14;;;;;;;10.20;9.27;;;;;;;;;;5074638;28;20044;-61
2023/11/30 11:59:42;;;;;;;11.40;10.40;;;;;;;;;;5081085;28;20059;-61
2023/11/30 12:02:18;;;;;;;11.40;10.50;;;;;;;;;;5094637;28;20051;-61
2023/11/30 12:04:44;;;;;;;10.02;9.15;;;;;;;;;;5086311;28;20413;-61
2023/11/30 12:07:16;;;;;;;11.13;10.13;;;;;;;;;;5094640;28;20504;-61
2023/11/30 12:09:53;;;;;;;10.15;9.35;;;;;;;;;;5082008;28;20053;-61
2023/11/30 12:12:20;;;;;;;9.45;8.73;;;;;;;;;;5074490;28;20056;-61
2023/11/30 12:14:47;;;;;;;10.30;9.48;;;;;;;;;;5074072;28;20059;-61
2023/11/30 12:17:14;;;;;;;9.90;9.10;;;;;;;;;;5074272;28;20052;-60
2023/11/30 12:19:41;;;;;;;9.68;8.77;;;;;;;;;;5082713;28;20055;-61
2023/11/30 12:22:07;;;;;;;9.68;8.68;;;;;;;;;;5094400;28;20059;-61
2023/11/30 12:24:36;;;;;;;9.50;8.70;;;;;;;;;;5094256;28;20052;-61
2023/11/30 12:27:02;;;;;;;9.47;8.67;;;;;;;;;;5093699;28;20067;-61
2023/11/30 12:29:29;;;;;;;8.93;8.23;;;;;;;;;;5088494;28;20050;-61
2023/11/30 12:31:56;;;;;;;9.30;8.50;;;;;;;;;;5090834;28;20060;-61
2023/11/30 12:34:23;;;;;;;8.98;8.18;;;;;;;;;;5083666;28;20048;-60
2023/11/30 12:36:49;;;;;;;8.95;8.18;;;;;;;;;;5073512;28;20056;-61
2023/11/30 12:39:17;;;;;;;8.60;7.80;;;;;;;;;;5073259;28;20052;-61
2023/11/30 12:41:45;;;;;;;9.23;8.43;;;;;;;;;;5079370;28;20048;-61
2023/11/30 12:44:12;;;;;;;9.07;8.25;;;;;;;;;;5093867;28;20056;-61
2023/11/30 12:46:39;;;;;;;8.55;7.85;;;;;;;;;;5093988;28;20054;-61
2023/11/30 12:49:06;;;;;;;8.50;7.70;;;;;;;;;;5084931;28;20051;-60
2023/11/30 12:51:34;;;;;;;8.25;7.55;;;;;;;;;;5073515;28;20048;-60
2023/11/30 12:54:03;;;;;;;9.15;8.25;;;;;;;;;;5073010;28;20060;-60
2023/11/30 12:56:30;;;;;;;8.85;8.05;;;;;;;;;;5072962;28;20060;-59
2023/11/30 12:58:58;;;;;;;8.98;8.18;;;;;;;;;;5074316;28;20408;-60
2023/11/30 13:01:25;;;;;;;8.82;8.02;;;;;;;;;;5073047;28;20131;-59
2023/11/30 13:03:52;;;;;;;9.13;8.32;;;;;;;;;;5075170;28;20053;-60
2023/11/30 13:06:19;;;;;;;8.93;8.13;;;;;;;;;;5093493;28;20055;-60
2023/11/30 13:08:45;;;;;;;17.10;15.68;;;;;;;;;;5093081;28;20048;-60
2023/11/30 13:11:12;;;;;;;11.18;10.27;;;;;;;;;;5073511;28;20052;-60
2023/11/30 13:13:39;;;;;;;10.63;9.70;;;;;;;;;;5072978;28;20052;-60
2023/11/30 13:16:08;;;;;;;10.48;9.50;;;;;;;;;;5072514;28;20049;-60
2023/11/30 13:18:35;;;;;;;9.63;8.88;;;;;;;;;;5072611;28;20501;-61
2023/11/30 13:21:01;;;;;;;10.50;9.60;;;;;;;;;;5090368;28;20058;-60
2023/11/30 13:23:28;;;;;;;9.50;8.70;;;;;;;;;;5092944;28;20052;-60
2023/11/30 13:25:55;;;;;;;9.25;8.38;;;;;;;;;;5092662;28;20052;-60
2023/11/30 13:28:22;;;;;;;9.38;8.57;;;;;;;;;;5092958;28;20048;-60
2023/11/30 13:30:49;;;;;;;9.70;8.90;;;;;;;;;;5091208;28;20396;-60
2023/11/30 13:33:17;;;;;;;10.32;9.43;;;;;;;;;;5091059;28;20052;-60
2023/11/30 13:35:44;;;;;;;9.43;8.57;;;;;;;;;;5089061;28;20059;-61
2023/11/30 13:38:11;;;;;;;11.85;10.75;;;;;;;;;;5092319;28;20051;-60
2023/11/30 13:40:38;;;;;;;9.55;8.75;;;;;;;;;;5090413;28;20056;-60
2023/11/30 13:43:05;;;;;;;9.68;8.68;;;;;;;;;;5092148;28;20060;-60
2023/11/30 13:45:31;;;;;;;10.15;9.20;;;;;;;;;;5092608;28;20048;-60
2023/11/30 13:47:58;;;;;;;9.55;8.57;;;;;;;;;;5092584;28;20055;-60
2023/11/30 13:50:27;;;;;;;15.80;14.23;;;;;;;;;;5077924;28;20052;-60
2023/11/30 13:52:53;;;;;;;18.85;16.95;;;;;;;;;;5072418;28;20413;-60
2023/11/30 13:55:20;;;;;;;13.10;11.80;;;;;;;;;;5072251;28;20067;-59
2023/11/30 13:57:47;;;;;;;11.73;10.52;;;;;;;;;;5072176;28;20394;-59
2023/11/30 14:00:14;;;;;;;12.27;10.52;;;;;;;;;;5079624;28;20043;-60
2023/11/30 14:02:41;;;;;;;10.02;8.90;;;;;;;;;;5091870;28;20055;-60
2023/11/30 14:05:08;;;;;;;10.85;9.75;;;;;;;;;;5082799;28;20067;-59
2023/11/30 14:07:36;;;;;;;11.07;9.93;;;;;;;;;;5072208;28;20588;-59
2023/11/30 14:10:06;;;;;;;9.85;8.85;;;;;;;;;;5073548;28;20049;-59
2023/11/30 14:12:33;;;;;;;10.70;9.25;;;;;;;;;;5086553;28;20048;-59
2023/11/30 14:15:00;;;;;;;10.05;8.90;;;;;;;;;;5072047;28;20048;-59
2023/11/30 14:17:29;;;;;;;11.18;9.20;;;;;;;;;;5072154;28;20079;-59
2023/11/30 14:19:57;;;;;;;10.85;8.73;;;;;;;;;;5072418;28;20049;-60
2023/11/30 14:22:24;;;;;;;10.45;9.15;;;;;;;;;;5072157;28;20053;-59